SBI2145 UUDD-URWW
Flight info
| Callsign | SBI2145 |
|---|---|
| Flight time | 1h 18m |
| Altitude | 35000 |
| Route | K0833F350 TOGMO M56 ABAGI B105 NIMTA/K0835F340 B105 NATIT |
| Aircraft | A320/M-SDE3FGHIRWY/LB1 |
Departure
| Time | 2026-04-25 07:56 |
|---|---|
| Airport | Domodedovo International Airport (UUDD) |
Arrival
| Time | 2026-04-25 09:14 |
|---|---|
| Airport | Volgograd International Airport (URWW) |
| Time | Latitude | Longitude | Altitude | Speed | Heading |
|---|---|---|---|---|---|
| 2026-04-25 06:45 | 55.41306 | 37.90311 | 572 ft | 0 kts | 49° |
| 2026-04-25 06:48 | 55.41305 | 37.90311 | 572 ft | 0 kts | 49° |
| 2026-04-25 06:56 | 55.41305 | 37.90310 | 572 ft | 0 kts | 49° |
| 2026-04-25 07:22 | 55.41305 | 37.90309 | 572 ft | 0 kts | 49° |
| 2026-04-25 07:34 | 55.41299 | 37.90297 | 572 ft | 4 kts | 53° |
| 2026-04-25 07:34 | 55.41285 | 37.90257 | 576 ft | 4 kts | 72° |
| 2026-04-25 07:34 | 55.41282 | 37.90213 | 573 ft | 4 kts | 113° |
| 2026-04-25 07:35 | 55.41289 | 37.90194 | 573 ft | 2 kts | 144° |
| 2026-04-25 07:42 | 55.41286 | 37.90198 | 576 ft | 2 kts | 143° |
| 2026-04-25 07:43 | 55.41268 | 37.90220 | 573 ft | 4 kts | 143° |
| 2026-04-25 07:43 | 55.41238 | 37.90257 | 575 ft | 6 kts | 145° |
| 2026-04-25 07:43 | 55.41209 | 37.90292 | 571 ft | 5 kts | 146° |
| 2026-04-25 07:43 | 55.41179 | 37.90326 | 568 ft | 5 kts | 147° |
| 2026-04-25 07:44 | 55.41149 | 37.90361 | 571 ft | 5 kts | 145° |
| 2026-04-25 07:44 | 55.41115 | 37.90394 | 569 ft | 6 kts | 158° |
| 2026-04-25 07:44 | 55.41078 | 37.90409 | 572 ft | 5 kts | 189° |
| 2026-04-25 07:44 | 55.41050 | 37.90375 | 565 ft | 5 kts | 225° |
| 2026-04-25 07:45 | 55.41040 | 37.90305 | 568 ft | 8 kts | 274° |
| 2026-04-25 07:45 | 55.41030 | 37.90193 | 573 ft | 10 kts | 243° |
| 2026-04-25 07:45 | 55.40986 | 37.90080 | 566 ft | 13 kts | 236° |
| 2026-04-25 07:45 | 55.40936 | 37.89943 | 566 ft | 15 kts | 237° |
| 2026-04-25 07:46 | 55.40883 | 37.89817 | 567 ft | 12 kts | 235° |
| 2026-04-25 07:46 | 55.40835 | 37.89691 | 568 ft | 13 kts | 235° |
| 2026-04-25 07:46 | 55.40811 | 37.89630 | 569 ft | 0 kts | 236° |
| 2026-04-25 07:46 | 55.40810 | 37.89626 | 569 ft | 2 kts | 234° |
| 2026-04-25 07:47 | 55.40785 | 37.89607 | 569 ft | 7 kts | 191° |
| 2026-04-25 07:47 | 55.40738 | 37.89533 | 571 ft | 12 kts | 238° |
| 2026-04-25 07:47 | 55.40700 | 37.89435 | 568 ft | 3 kts | 235° |
| 2026-04-25 07:47 | 55.40676 | 37.89373 | 572 ft | 8 kts | 236° |
| 2026-04-25 07:48 | 55.40652 | 37.89352 | 570 ft | 7 kts | 189° |
| 2026-04-25 07:48 | 55.40602 | 37.89389 | 567 ft | 8 kts | 144° |
| 2026-04-25 07:48 | 55.40555 | 37.89447 | 566 ft | 8 kts | 147° |
| 2026-04-25 07:48 | 55.40506 | 37.89505 | 564 ft | 8 kts | 144° |
| 2026-04-25 07:49 | 55.40446 | 37.89577 | 568 ft | 13 kts | 146° |
| 2026-04-25 07:49 | 55.40366 | 37.89673 | 561 ft | 13 kts | 146° |
| 2026-04-25 07:49 | 55.40291 | 37.89764 | 562 ft | 13 kts | 146° |
| 2026-04-25 07:49 | 55.40218 | 37.89850 | 558 ft | 13 kts | 146° |
| 2026-04-25 07:50 | 55.40147 | 37.89936 | 557 ft | 12 kts | 146° |
| 2026-04-25 07:50 | 55.40077 | 37.90021 | 558 ft | 12 kts | 146° |
| 2026-04-25 07:50 | 55.40008 | 37.90103 | 557 ft | 12 kts | 145° |
| 2026-04-25 07:50 | 55.39941 | 37.90185 | 556 ft | 12 kts | 146° |
| 2026-04-25 07:51 | 55.39874 | 37.90263 | 550 ft | 11 kts | 146° |
| 2026-04-25 07:51 | 55.39810 | 37.90342 | 548 ft | 11 kts | 146° |
| 2026-04-25 07:51 | 55.39749 | 37.90416 | 547 ft | 11 kts | 146° |
| 2026-04-25 07:51 | 55.39688 | 37.90489 | 546 ft | 12 kts | 146° |
| 2026-04-25 07:52 | 55.39644 | 37.90541 | 545 ft | 9 kts | 148° |
| 2026-04-25 07:52 | 55.39591 | 37.90507 | 544 ft | 0 kts | 240° |
| 2026-04-25 07:53 | 55.39591 | 37.90506 | 544 ft | 1 kts | 240° |
| 2026-04-25 07:53 | 55.39590 | 37.90502 | 544 ft | 0 kts | 240° |
| 2026-04-25 07:54 | 55.39588 | 37.90498 | 544 ft | 3 kts | 237° |
| 2026-04-25 07:54 | 55.39560 | 37.90426 | 544 ft | 12 kts | 240° |
| 2026-04-25 07:54 | 55.39528 | 37.90316 | 542 ft | 6 kts | 269° |
| 2026-04-25 07:55 | 55.39564 | 37.90275 | 543 ft | 6 kts | 330° |
| 2026-04-25 07:55 | 55.39572 | 37.90264 | 543 ft | 0 kts | 323° |
| 2026-04-25 07:55 | 55.39654 | 37.90166 | 545 ft | 42 kts | 327° |
| 2026-04-25 07:55 | 55.40079 | 37.89649 | 560 ft | 104 kts | 326° |
| 2026-04-25 07:56 | 55.40821 | 37.88748 | 576 ft | 153 kts | 325° |
| 2026-04-25 07:56 | 55.41768 | 37.87554 | 891 ft | 170 kts | 324° |
| 2026-04-25 07:56 | 55.42668 | 37.86219 | 1705 ft | 169 kts | 313° |
| 2026-04-25 07:56 | 55.43477 | 37.84654 | 2266 ft | 182 kts | 310° |
| 2026-04-25 07:57 | 55.44352 | 37.82878 | 2613 ft | 200 kts | 310° |
| 2026-04-25 07:57 | 55.45275 | 37.80990 | 3401 ft | 202 kts | 310° |
| 2026-04-25 07:57 | 55.46130 | 37.79010 | 3887 ft | 203 kts | 293° |
| 2026-04-25 07:57 | 55.46188 | 37.76580 | 3994 ft | 210 kts | 251° |
| 2026-04-25 07:58 | 55.45421 | 37.74244 | 4413 ft | 232 kts | 240° |
| 2026-04-25 07:58 | 55.44800 | 37.72656 | 4989 ft | 235 kts | 239° |
| 2026-04-25 07:58 | 55.43522 | 37.69549 | 5847 ft | 238 kts | 235° |
| 2026-04-25 07:58 | 55.42662 | 37.68265 | 5953 ft | 246 kts | 212° |
| 2026-04-25 07:59 | 55.40951 | 37.67726 | 6006 ft | 267 kts | 175° |
| 2026-04-25 07:59 | 55.38585 | 37.69624 | 6668 ft | 293 kts | 151° |
| 2026-04-25 07:59 | 55.37418 | 37.70954 | 6904 ft | 298 kts | 148° |
| 2026-04-25 07:59 | 55.35721 | 37.73049 | 6992 ft | 298 kts | 147° |
| 2026-04-25 08:00 | 55.34042 | 37.75189 | 7002 ft | 298 kts | 147° |
| 2026-04-25 08:00 | 55.32356 | 37.77334 | 7287 ft | 302 kts | 147° |
| 2026-04-25 08:00 | 55.30643 | 37.79497 | 7862 ft | 304 kts | 147° |
| 2026-04-25 08:00 | 55.28924 | 37.81639 | 7991 ft | 303 kts | 148° |
| 2026-04-25 08:01 | 55.27123 | 37.83501 | 8004 ft | 298 kts | 161° |
| 2026-04-25 08:01 | 55.25144 | 37.84565 | 8479 ft | 298 kts | 171° |
| 2026-04-25 08:01 | 55.23132 | 37.85429 | 9398 ft | 299 kts | 171° |
| 2026-04-25 08:01 | 55.21101 | 37.86330 | 10143 ft | 303 kts | 170° |
| 2026-04-25 08:02 | 55.19034 | 37.87258 | 10836 ft | 309 kts | 170° |
| 2026-04-25 08:02 | 55.16935 | 37.88197 | 11511 ft | 314 kts | 169° |
| 2026-04-25 08:02 | 55.14799 | 37.89148 | 12182 ft | 320 kts | 169° |
| 2026-04-25 08:02 | 55.12627 | 37.90118 | 12861 ft | 325 kts | 169° |
| 2026-04-25 08:03 | 55.10390 | 37.90785 | 13512 ft | 327 kts | 181° |
| 2026-04-25 08:03 | 55.08122 | 37.90625 | 14080 ft | 326 kts | 192° |
| 2026-04-25 08:03 | 55.05860 | 37.90112 | 14704 ft | 330 kts | 192° |
| 2026-04-25 08:03 | 55.03546 | 37.89863 | 15323 ft | 339 kts | 179° |
| 2026-04-25 08:04 | 55.01219 | 37.90770 | 15908 ft | 348 kts | 160° |
| 2026-04-25 08:04 | 54.99072 | 37.92857 | 16267 ft | 364 kts | 142° |
| 2026-04-25 08:04 | 54.97303 | 37.96104 | 16538 ft | 376 kts | 123° |
| 2026-04-25 08:04 | 54.95854 | 37.99936 | 17059 ft | 382 kts | 122° |
| 2026-04-25 08:05 | 54.94379 | 38.03807 | 17626 ft | 386 kts | 122° |
| 2026-04-25 08:05 | 54.92870 | 38.07710 | 18183 ft | 390 kts | 122° |
| 2026-04-25 08:05 | 54.91342 | 38.11638 | 18577 ft | 395 kts | 122° |
| 2026-04-25 08:05 | 54.89899 | 38.15691 | 18672 ft | 394 kts | 114° |
| 2026-04-25 08:06 | 54.88819 | 38.20052 | 18686 ft | 392 kts | 108° |
| 2026-04-25 08:06 | 54.87825 | 38.24461 | 18685 ft | 392 kts | 108° |
| 2026-04-25 08:06 | 54.86828 | 38.28862 | 18683 ft | 392 kts | 108° |
| 2026-04-25 08:06 | 54.85828 | 38.33263 | 18688 ft | 392 kts | 108° |
| 2026-04-25 08:07 | 54.84744 | 38.37603 | 18688 ft | 394 kts | 116° |
| 2026-04-25 08:07 | 54.83402 | 38.41780 | 19128 ft | 398 kts | 117° |
| 2026-04-25 08:07 | 54.82046 | 38.45981 | 19678 ft | 401 kts | 117° |
| 2026-04-25 08:07 | 54.80677 | 38.50211 | 20188 ft | 404 kts | 117° |
| 2026-04-25 08:08 | 54.79295 | 38.54476 | 20598 ft | 408 kts | 117° |
| 2026-04-25 08:08 | 54.77874 | 38.58738 | 20680 ft | 409 kts | 121° |
| 2026-04-25 08:08 | 54.76124 | 38.62634 | 20691 ft | 411 kts | 133° |
| 2026-04-25 08:08 | 54.73982 | 38.65974 | 20733 ft | 422 kts | 144° |
| 2026-04-25 08:09 | 54.71475 | 38.68757 | 20876 ft | 435 kts | 150° |
| 2026-04-25 08:09 | 54.68833 | 38.71487 | 21059 ft | 447 kts | 150° |
| 2026-04-25 08:09 | 54.66143 | 38.74272 | 21433 ft | 453 kts | 150° |
| 2026-04-25 08:09 | 54.63427 | 38.77088 | 21869 ft | 458 kts | 150° |
| 2026-04-25 08:10 | 54.60688 | 38.79933 | 22293 ft | 461 kts | 150° |
| 2026-04-25 08:10 | 54.57930 | 38.82800 | 22726 ft | 465 kts | 149° |
| 2026-04-25 08:10 | 54.55185 | 38.85651 | 23130 ft | 468 kts | 149° |
| 2026-04-25 08:10 | 54.52383 | 38.88558 | 23495 ft | 472 kts | 149° |
| 2026-04-25 08:11 | 54.49564 | 38.91477 | 23849 ft | 474 kts | 149° |
| 2026-04-25 08:11 | 54.46736 | 38.94401 | 24210 ft | 476 kts | 150° |
| 2026-04-25 08:11 | 54.43909 | 38.97394 | 24557 ft | 478 kts | 146° |
| 2026-04-25 08:11 | 54.41312 | 39.00958 | 24906 ft | 480 kts | 136° |
| 2026-04-25 08:12 | 54.39057 | 39.05189 | 25249 ft | 480 kts | 126° |
| 2026-04-25 08:12 | 54.37214 | 39.09955 | 25577 ft | 480 kts | 116° |
| 2026-04-25 08:12 | 54.35815 | 39.15132 | 25904 ft | 479 kts | 109° |
| 2026-04-25 08:12 | 54.34558 | 39.20435 | 26225 ft | 481 kts | 109° |
| 2026-04-25 08:13 | 54.33288 | 39.25743 | 26541 ft | 483 kts | 109° |
| 2026-04-25 08:13 | 54.32001 | 39.31072 | 26843 ft | 485 kts | 109° |
| 2026-04-25 08:13 | 54.30700 | 39.36418 | 27137 ft | 487 kts | 110° |
| 2026-04-25 08:14 | 54.28071 | 39.47167 | 27717 ft | 491 kts | 109° |
| 2026-04-25 08:14 | 54.26748 | 39.52575 | 27992 ft | 493 kts | 109° |
| 2026-04-25 08:14 | 54.25422 | 39.57994 | 28260 ft | 495 kts | 109° |
| 2026-04-25 08:14 | 54.24089 | 39.63435 | 28503 ft | 497 kts | 109° |
| 2026-04-25 08:15 | 54.22745 | 39.68893 | 28754 ft | 499 kts | 110° |
| 2026-04-25 08:15 | 54.21393 | 39.74365 | 28988 ft | 501 kts | 110° |
| 2026-04-25 08:15 | 54.20028 | 39.79859 | 29221 ft | 503 kts | 110° |
| 2026-04-25 08:15 | 54.18661 | 39.85359 | 29538 ft | 503 kts | 110° |
| 2026-04-25 08:16 | 54.17297 | 39.90845 | 29855 ft | 502 kts | 109° |
| 2026-04-25 08:16 | 54.15931 | 39.96332 | 30129 ft | 502 kts | 109° |
| 2026-04-25 08:16 | 54.14564 | 40.01804 | 30390 ft | 501 kts | 110° |
| 2026-04-25 08:16 | 54.13192 | 40.07272 | 30673 ft | 501 kts | 109° |
| 2026-04-25 08:17 | 54.11855 | 40.12740 | 30948 ft | 499 kts | 106° |
| 2026-04-25 08:17 | 54.10823 | 40.18358 | 31205 ft | 496 kts | 102° |
| 2026-04-25 08:17 | 54.09858 | 40.23993 | 31481 ft | 496 kts | 102° |
| 2026-04-25 08:17 | 54.08886 | 40.29628 | 31763 ft | 495 kts | 102° |
| 2026-04-25 08:18 | 54.07910 | 40.35250 | 32044 ft | 494 kts | 102° |
| 2026-04-25 08:18 | 54.06931 | 40.40861 | 32325 ft | 494 kts | 102° |
| 2026-04-25 08:18 | 54.05953 | 40.46459 | 32599 ft | 493 kts | 102° |
| 2026-04-25 08:18 | 54.04973 | 40.52053 | 32878 ft | 493 kts | 102° |
| 2026-04-25 08:19 | 54.03991 | 40.57626 | 33160 ft | 492 kts | 102° |
| 2026-04-25 08:19 | 54.03004 | 40.63208 | 33460 ft | 492 kts | 102° |
| 2026-04-25 08:19 | 54.02019 | 40.68770 | 33725 ft | 491 kts | 102° |
| 2026-04-25 08:19 | 54.01034 | 40.74315 | 33960 ft | 490 kts | 102° |
| 2026-04-25 08:20 | 54.00047 | 40.79857 | 34195 ft | 490 kts | 103° |
| 2026-04-25 08:20 | 53.99055 | 40.85395 | 34422 ft | 489 kts | 103° |
| 2026-04-25 08:20 | 53.98062 | 40.90917 | 34634 ft | 489 kts | 103° |
| 2026-04-25 08:21 | 53.96068 | 41.01978 | 34723 ft | 490 kts | 103° |
| 2026-04-25 08:21 | 53.94135 | 41.13063 | 34724 ft | 489 kts | 101° |
| 2026-04-25 08:22 | 53.92346 | 41.24188 | 34720 ft | 489 kts | 101° |
| 2026-04-25 08:22 | 53.90569 | 41.35311 | 34725 ft | 489 kts | 101° |
| 2026-04-25 08:23 | 53.88739 | 41.46414 | 34724 ft | 489 kts | 101° |
| 2026-04-25 08:23 | 53.86883 | 41.57479 | 34735 ft | 489 kts | 102° |
| 2026-04-25 08:24 | 53.85001 | 41.68555 | 34743 ft | 489 kts | 102° |
| 2026-04-25 08:24 | 53.83119 | 41.79606 | 34740 ft | 489 kts | 102° |
| 2026-04-25 08:25 | 53.81228 | 41.90658 | 34753 ft | 489 kts | 102° |
| 2026-04-25 08:25 | 53.79318 | 42.01693 | 34748 ft | 488 kts | 102° |
| 2026-04-25 08:26 | 53.77403 | 42.12708 | 34750 ft | 488 kts | 102° |
| 2026-04-25 08:26 | 53.75488 | 42.23692 | 34749 ft | 487 kts | 102° |
| 2026-04-25 08:27 | 53.73569 | 42.34666 | 34750 ft | 487 kts | 102° |
| 2026-04-25 08:27 | 53.71632 | 42.45608 | 34743 ft | 486 kts | 102° |
| 2026-04-25 08:28 | 53.69530 | 42.56463 | 34740 ft | 490 kts | 111° |
| 2026-04-25 08:28 | 53.65723 | 42.66050 | 34738 ft | 498 kts | 132° |
| 2026-04-25 08:29 | 53.60180 | 42.73052 | 34729 ft | 501 kts | 153° |
| 2026-04-25 08:29 | 53.53781 | 42.77740 | 34718 ft | 502 kts | 157° |
| 2026-04-25 08:30 | 53.47394 | 42.82325 | 34720 ft | 503 kts | 156° |
| 2026-04-25 08:30 | 53.40921 | 42.86980 | 34726 ft | 503 kts | 156° |
| 2026-04-25 08:31 | 53.34526 | 42.91574 | 34731 ft | 503 kts | 156° |
| 2026-04-25 08:31 | 53.28091 | 42.96171 | 34735 ft | 504 kts | 156° |
| 2026-04-25 08:32 | 53.21634 | 43.00758 | 34744 ft | 504 kts | 156° |
| 2026-04-25 08:32 | 53.15183 | 43.05331 | 34746 ft | 504 kts | 156° |
| 2026-04-25 08:33 | 53.08741 | 43.09962 | 34752 ft | 504 kts | 155° |
| 2026-04-25 08:33 | 53.02344 | 43.14759 | 34759 ft | 504 kts | 155° |
| 2026-04-25 08:34 | 52.95953 | 43.19571 | 34764 ft | 504 kts | 155° |
| 2026-04-25 08:34 | 52.89546 | 43.24320 | 34767 ft | 505 kts | 155° |
| 2026-04-25 08:35 | 52.83119 | 43.29023 | 34769 ft | 505 kts | 156° |
| 2026-04-25 08:35 | 52.76700 | 43.33716 | 34772 ft | 505 kts | 155° |
| 2026-04-25 08:36 | 52.70272 | 43.38426 | 34771 ft | 505 kts | 155° |
| 2026-04-25 08:36 | 52.63851 | 43.43120 | 34776 ft | 505 kts | 156° |
| 2026-04-25 08:37 | 52.57417 | 43.47789 | 34775 ft | 505 kts | 156° |
| 2026-04-25 08:37 | 52.50978 | 43.52442 | 34781 ft | 506 kts | 156° |
| 2026-04-25 08:38 | 52.44539 | 43.57091 | 34782 ft | 506 kts | 156° |
| 2026-04-25 08:38 | 52.38100 | 43.61734 | 34787 ft | 506 kts | 156° |
| 2026-04-25 08:39 | 52.31653 | 43.66351 | 34794 ft | 506 kts | 156° |
| 2026-04-25 08:39 | 52.25203 | 43.70961 | 34798 ft | 506 kts | 156° |
| 2026-04-25 08:40 | 52.18753 | 43.75568 | 34802 ft | 506 kts | 156° |
| 2026-04-25 08:40 | 52.12295 | 43.80150 | 34799 ft | 506 kts | 156° |
| 2026-04-25 08:41 | 52.05834 | 43.84714 | 34806 ft | 506 kts | 156° |
| 2026-04-25 08:41 | 52.00464 | 43.88505 | 34808 ft | 506 kts | 156° |
| 2026-04-25 08:42 | 51.94002 | 43.93064 | 34812 ft | 506 kts | 156° |
| 2026-04-25 08:42 | 51.87536 | 43.97595 | 34820 ft | 506 kts | 156° |
| 2026-04-25 08:43 | 51.81069 | 44.02123 | 34825 ft | 506 kts | 156° |
| 2026-04-25 08:43 | 51.74608 | 44.06634 | 34821 ft | 506 kts | 156° |
| 2026-04-25 08:44 | 51.68144 | 44.11142 | 34826 ft | 506 kts | 156° |
| 2026-04-25 08:44 | 51.61679 | 44.15623 | 34829 ft | 506 kts | 157° |
| 2026-04-25 08:45 | 51.55214 | 44.20074 | 34830 ft | 505 kts | 157° |
| 2026-04-25 08:45 | 51.48756 | 44.24522 | 34835 ft | 505 kts | 157° |
| 2026-04-25 08:46 | 51.42291 | 44.28957 | 34833 ft | 505 kts | 157° |
| 2026-04-25 08:46 | 51.35839 | 44.33380 | 34839 ft | 504 kts | 157° |
| 2026-04-25 08:47 | 51.29394 | 44.37789 | 34840 ft | 504 kts | 157° |
| 2026-04-25 08:47 | 51.22940 | 44.42185 | 34839 ft | 504 kts | 157° |
| 2026-04-25 08:48 | 51.16332 | 44.45762 | 34835 ft | 501 kts | 171° |
| 2026-04-25 08:48 | 51.09424 | 44.46346 | 34577 ft | 496 kts | 186° |
| 2026-04-25 08:48 | 51.05979 | 44.46009 | 34393 ft | 497 kts | 186° |
| 2026-04-25 08:49 | 51.02525 | 44.45672 | 34205 ft | 498 kts | 186° |
| 2026-04-25 08:49 | 50.99060 | 44.45335 | 34031 ft | 499 kts | 186° |
| 2026-04-25 08:49 | 50.95596 | 44.45005 | 33830 ft | 500 kts | 186° |
| 2026-04-25 08:50 | 50.88642 | 44.44356 | 33839 ft | 501 kts | 186° |
| 2026-04-25 08:50 | 50.81676 | 44.43709 | 33846 ft | 501 kts | 186° |
| 2026-04-25 08:51 | 50.74705 | 44.43059 | 33849 ft | 501 kts | 186° |
| 2026-04-25 08:51 | 50.67791 | 44.42420 | 33856 ft | 501 kts | 186° |
| 2026-04-25 08:52 | 50.60831 | 44.41784 | 33854 ft | 501 kts | 186° |
| 2026-04-25 08:52 | 50.53822 | 44.41134 | 33862 ft | 501 kts | 186° |
| 2026-04-25 08:53 | 50.46911 | 44.40506 | 33722 ft | 502 kts | 186° |
| 2026-04-25 08:53 | 50.43423 | 44.40188 | 33361 ft | 502 kts | 186° |
| 2026-04-25 08:53 | 50.39930 | 44.39869 | 32953 ft | 504 kts | 186° |
| 2026-04-25 08:53 | 50.36419 | 44.39551 | 32453 ft | 508 kts | 186° |
| 2026-04-25 08:54 | 50.32880 | 44.39231 | 31728 ft | 511 kts | 186° |
| 2026-04-25 08:54 | 50.29318 | 44.38905 | 31026 ft | 515 kts | 186° |
| 2026-04-25 08:54 | 50.25726 | 44.38572 | 30344 ft | 520 kts | 186° |
| 2026-04-25 08:54 | 50.22096 | 44.38233 | 29619 ft | 525 kts | 186° |
| 2026-04-25 08:55 | 50.18446 | 44.37899 | 28823 ft | 523 kts | 186° |
| 2026-04-25 08:55 | 50.14832 | 44.37577 | 28050 ft | 518 kts | 186° |
| 2026-04-25 08:55 | 50.11254 | 44.37261 | 27300 ft | 513 kts | 186° |
| 2026-04-25 08:55 | 50.07712 | 44.36950 | 26566 ft | 507 kts | 186° |
| 2026-04-25 08:56 | 50.04209 | 44.36642 | 25850 ft | 501 kts | 186° |
| 2026-04-25 08:56 | 50.00743 | 44.36336 | 25157 ft | 496 kts | 186° |
| 2026-04-25 08:56 | 49.97321 | 44.36029 | 24472 ft | 489 kts | 186° |
| 2026-04-25 08:56 | 49.93985 | 44.35733 | 23812 ft | 470 kts | 186° |
| 2026-04-25 08:57 | 49.90781 | 44.35453 | 23141 ft | 453 kts | 186° |
| 2026-04-25 08:57 | 49.87695 | 44.35184 | 22403 ft | 437 kts | 186° |
| 2026-04-25 08:57 | 49.84710 | 44.34918 | 21707 ft | 423 kts | 186° |
| 2026-04-25 08:57 | 49.81820 | 44.34656 | 21055 ft | 410 kts | 186° |
| 2026-04-25 08:58 | 49.79018 | 44.34403 | 20419 ft | 397 kts | 186° |
| 2026-04-25 08:58 | 49.76298 | 44.34157 | 19803 ft | 386 kts | 186° |
| 2026-04-25 08:58 | 49.73664 | 44.33920 | 19222 ft | 374 kts | 186° |
| 2026-04-25 08:58 | 49.71102 | 44.33693 | 18648 ft | 363 kts | 187° |
| 2026-04-25 08:59 | 49.68612 | 44.33471 | 18069 ft | 353 kts | 187° |
| 2026-04-25 08:59 | 49.66190 | 44.33254 | 17423 ft | 345 kts | 187° |
| 2026-04-25 08:59 | 49.63822 | 44.33045 | 16787 ft | 337 kts | 187° |
| 2026-04-25 08:59 | 49.61498 | 44.32842 | 16167 ft | 331 kts | 187° |
| 2026-04-25 09:00 | 49.59224 | 44.32642 | 15563 ft | 325 kts | 187° |
| 2026-04-25 09:00 | 49.56983 | 44.32446 | 14972 ft | 320 kts | 187° |
| 2026-04-25 09:00 | 49.54765 | 44.32346 | 14359 ft | 317 kts | 184° |
| 2026-04-25 09:00 | 49.52564 | 44.32357 | 13758 ft | 314 kts | 183° |
| 2026-04-25 09:01 | 49.50392 | 44.32414 | 13095 ft | 311 kts | 183° |
| 2026-04-25 09:01 | 49.48238 | 44.32485 | 12439 ft | 307 kts | 183° |
| 2026-04-25 09:01 | 49.46115 | 44.32549 | 11796 ft | 304 kts | 183° |
| 2026-04-25 09:01 | 49.44020 | 44.32601 | 11155 ft | 300 kts | 184° |
| 2026-04-25 09:02 | 49.41939 | 44.32644 | 10556 ft | 297 kts | 184° |
| 2026-04-25 09:02 | 49.39890 | 44.32680 | 10041 ft | 290 kts | 184° |
| 2026-04-25 09:02 | 49.37896 | 44.32715 | 9910 ft | 285 kts | 184° |
| 2026-04-25 09:02 | 49.35918 | 44.32743 | 9921 ft | 284 kts | 185° |
| 2026-04-25 09:03 | 49.33936 | 44.32764 | 9717 ft | 285 kts | 185° |
| 2026-04-25 09:03 | 49.31965 | 44.32789 | 9401 ft | 282 kts | 184° |
| 2026-04-25 09:03 | 49.30005 | 44.32816 | 9080 ft | 280 kts | 184° |
| 2026-04-25 09:03 | 49.28063 | 44.32844 | 8752 ft | 278 kts | 184° |
| 2026-04-25 09:04 | 49.26133 | 44.32873 | 8421 ft | 276 kts | 184° |
| 2026-04-25 09:04 | 49.24221 | 44.32902 | 8110 ft | 274 kts | 184° |
| 2026-04-25 09:04 | 49.22315 | 44.32929 | 7790 ft | 273 kts | 184° |
| 2026-04-25 09:04 | 49.20422 | 44.32955 | 7471 ft | 271 kts | 184° |
| 2026-04-25 09:05 | 49.18543 | 44.32982 | 7209 ft | 270 kts | 185° |
| 2026-04-25 09:05 | 49.16670 | 44.33013 | 6928 ft | 269 kts | 182° |
| 2026-04-25 09:05 | 49.14812 | 44.33448 | 6644 ft | 273 kts | 168° |
| 2026-04-25 09:05 | 49.13047 | 44.34540 | 6368 ft | 275 kts | 156° |
| 2026-04-25 09:06 | 49.11351 | 44.35876 | 6070 ft | 273 kts | 157° |
| 2026-04-25 09:06 | 49.09671 | 44.37189 | 5773 ft | 269 kts | 157° |
| 2026-04-25 09:06 | 49.08010 | 44.38484 | 5478 ft | 268 kts | 157° |
| 2026-04-25 09:06 | 49.06352 | 44.39771 | 5212 ft | 267 kts | 157° |
| 2026-04-25 09:07 | 49.04718 | 44.41037 | 4978 ft | 260 kts | 157° |
| 2026-04-25 09:07 | 49.03121 | 44.42277 | 4735 ft | 256 kts | 158° |
| 2026-04-25 09:07 | 49.01533 | 44.43509 | 4495 ft | 255 kts | 157° |
| 2026-04-25 09:07 | 48.99956 | 44.44730 | 4268 ft | 253 kts | 158° |
| 2026-04-25 09:08 | 48.98405 | 44.45928 | 4042 ft | 247 kts | 158° |
| 2026-04-25 09:08 | 48.96889 | 44.47100 | 3834 ft | 243 kts | 158° |
| 2026-04-25 09:08 | 48.95385 | 44.48267 | 3616 ft | 242 kts | 158° |
| 2026-04-25 09:08 | 48.93903 | 44.49420 | 3403 ft | 237 kts | 158° |
| 2026-04-25 09:09 | 48.92439 | 44.50516 | 3200 ft | 234 kts | 159° |
| 2026-04-25 09:09 | 48.90977 | 44.51575 | 3011 ft | 232 kts | 160° |
| 2026-04-25 09:09 | 48.89518 | 44.52620 | 2839 ft | 230 kts | 160° |
| 2026-04-25 09:09 | 48.88051 | 44.53408 | 2673 ft | 216 kts | 176° |
| 2026-04-25 09:10 | 48.86617 | 44.53465 | 2598 ft | 199 kts | 195° |
| 2026-04-25 09:10 | 48.85330 | 44.52913 | 2596 ft | 188 kts | 212° |
| 2026-04-25 09:10 | 48.84252 | 44.51890 | 2635 ft | 174 kts | 226° |
| 2026-04-25 09:10 | 48.83483 | 44.50632 | 2606 ft | 151 kts | 240° |
| 2026-04-25 09:11 | 48.82600 | 44.48034 | 2380 ft | 133 kts | 250° |
| 2026-04-25 09:11 | 48.82207 | 44.46787 | 2205 ft | 132 kts | 250° |
| 2026-04-25 09:11 | 48.81807 | 44.45517 | 2020 ft | 131 kts | 249° |
| 2026-04-25 09:12 | 48.81419 | 44.44288 | 1853 ft | 131 kts | 248° |
| 2026-04-25 09:12 | 48.81023 | 44.43036 | 1663 ft | 132 kts | 249° |
| 2026-04-25 09:12 | 48.80628 | 44.41786 | 1475 ft | 131 kts | 248° |
| 2026-04-25 09:12 | 48.80234 | 44.40539 | 1287 ft | 131 kts | 249° |
| 2026-04-25 09:13 | 48.79841 | 44.39296 | 1104 ft | 132 kts | 249° |
| 2026-04-25 09:13 | 48.79445 | 44.38046 | 922 ft | 131 kts | 249° |
| 2026-04-25 09:13 | 48.79048 | 44.36793 | 739 ft | 133 kts | 250° |
| 2026-04-25 09:13 | 48.78651 | 44.35555 | 568 ft | 129 kts | 247° |
| 2026-04-25 09:14 | 48.78290 | 44.34382 | 472 ft | 106 kts | 247° |
| 2026-04-25 09:14 | 48.78046 | 44.33603 | 463 ft | 57 kts | 242° |
| 2026-04-25 09:14 | 48.77943 | 44.33297 | 453 ft | 13 kts | 244° |
| 2026-04-25 09:14 | 48.77894 | 44.33147 | 448 ft | 18 kts | 244° |
| 2026-04-25 09:15 | 48.77836 | 44.32959 | 441 ft | 22 kts | 245° |
| 2026-04-25 09:15 | 48.77764 | 44.32732 | 428 ft | 25 kts | 245° |
| 2026-04-25 09:15 | 48.77685 | 44.32477 | 421 ft | 28 kts | 241° |
| 2026-04-25 09:15 | 48.77606 | 44.32235 | 419 ft | 26 kts | 244° |
| 2026-04-25 09:16 | 48.77542 | 44.32036 | 412 ft | 17 kts | 244° |
| 2026-04-25 09:16 | 48.77502 | 44.31887 | 415 ft | 11 kts | 268° |
| 2026-04-25 09:16 | 48.77553 | 44.31809 | 409 ft | 9 kts | 334° |
| 2026-04-25 09:16 | 48.77612 | 44.31774 | 413 ft | 9 kts | 353° |
| 2026-04-25 09:17 | 48.77710 | 44.31990 | 420 ft | 16 kts | 64° |
| 2026-04-25 09:17 | 48.77764 | 44.32158 | 420 ft | 19 kts | 64° |
| 2026-04-25 09:17 | 48.77826 | 44.32356 | 432 ft | 22 kts | 64° |
| 2026-04-25 09:18 | 48.77889 | 44.32553 | 433 ft | 19 kts | 63° |
| 2026-04-25 09:18 | 48.77938 | 44.32709 | 442 ft | 14 kts | 65° |
| 2026-04-25 09:18 | 48.77975 | 44.32825 | 443 ft | 12 kts | 64° |
| 2026-04-25 09:18 | 48.78016 | 44.32951 | 450 ft | 14 kts | 64° |
| 2026-04-25 09:19 | 48.78062 | 44.33097 | 454 ft | 16 kts | 64° |
| 2026-04-25 09:19 | 48.78114 | 44.33262 | 460 ft | 18 kts | 65° |
| 2026-04-25 09:19 | 48.78173 | 44.33448 | 465 ft | 21 kts | 65° |
| 2026-04-25 09:19 | 48.78240 | 44.33657 | 471 ft | 23 kts | 65° |
| 2026-04-25 09:20 | 48.78311 | 44.33883 | 472 ft | 24 kts | 65° |
| 2026-04-25 09:20 | 48.78371 | 44.34071 | 480 ft | 14 kts | 64° |
| 2026-04-25 09:20 | 48.78415 | 44.34190 | 476 ft | 4 kts | 44° |
| 2026-04-25 09:20 | 48.78418 | 44.34194 | 477 ft | 2 kts | 42° |
| 2026-04-25 09:21 | 48.78441 | 44.34204 | 480 ft | 4 kts | 6° |
| 2026-04-25 09:21 | 48.78466 | 44.34198 | 476 ft | 4 kts | 351° |
| 2026-04-25 09:21 | 48.78501 | 44.34184 | 483 ft | 7 kts | 345° |
| 2026-04-25 09:21 | 48.78562 | 44.34158 | 479 ft | 11 kts | 344° |
| 2026-04-25 09:22 | 48.78647 | 44.34179 | 482 ft | 15 kts | 52° |
| 2026-04-25 09:22 | 48.78694 | 44.34347 | 483 ft | 20 kts | 68° |
| 2026-04-25 09:22 | 48.78735 | 44.34507 | 483 ft | 19 kts | 69° |
| 2026-04-25 09:22 | 48.78771 | 44.34652 | 484 ft | 14 kts | 69° |
| 2026-04-25 09:23 | 48.78804 | 44.34783 | 484 ft | 13 kts | 70° |
| 2026-04-25 09:23 | 48.78834 | 44.34905 | 483 ft | 12 kts | 69° |
| 2026-04-25 09:23 | 48.78861 | 44.35014 | 483 ft | 10 kts | 69° |
| 2026-04-25 09:23 | 48.78898 | 44.35096 | 486 ft | 9 kts | 37° |
| 2026-04-25 09:24 | 48.78933 | 44.35168 | 486 ft | 10 kts | 69° |
| 2026-04-25 09:24 | 48.78958 | 44.35269 | 482 ft | 10 kts | 69° |
| 2026-04-25 09:24 | 48.78980 | 44.35357 | 482 ft | 8 kts | 71° |
| 2026-04-25 09:24 | 48.78991 | 44.35401 | 480 ft | 6 kts | 61° |
| 2026-04-25 09:25 | 48.79027 | 44.35406 | 477 ft | 6 kts | 335° |
| 2026-04-25 09:25 | 48.79041 | 44.35397 | 481 ft | 2 kts | 337° |
| 2026-04-25 09:25 | 48.79044 | 44.35395 | 484 ft | 0 kts | 340° |
| 2026-04-25 09:25 | 48.79047 | 44.35394 | 484 ft | 0 kts | 340° |
| 2026-04-25 09:26 | 48.79049 | 44.35393 | 484 ft | 1 kts | 340° |
| 2026-04-25 09:26 | 48.79051 | 44.35392 | 484 ft | 1 kts | 340° |
| 2026-04-25 09:26 | 48.79053 | 44.35390 | 484 ft | 0 kts | 339° |
| 2026-04-25 09:26 | 48.79054 | 44.35390 | 484 ft | 0 kts | 339° |
| 2026-04-25 09:29 | 48.79053 | 44.35390 | 484 ft | 0 kts | 339° |